Flight Track Log - Related Links

Times and Time Zones

All times are in EDT time to prevent confusion due to time zone crossing. See the UAL1197 flight status page for this flight to view local times or setup timezone preferences in your user account.

Time Position Orientation Groundspeed Altitude Reporting Facility
EDT Latitude Longitude Course Direction KTS MPH feet Rate Location/Type
Thu 08:18:09 AM 29.9559 -95.3373 179° South 174 200 800  Level FlightAware ADS-B
Thu 08:18:12 AM 29.9540 -95.3349 132° Southeast 175 201 900 1,846 Climbing FlightAware ADS-B
Thu 08:18:22 AM 29.9494 -95.3279 127° Southeast 177 204 1,200 1,548 Climbing FlightAware ADS-B
Thu 08:18:43 AM 29.9390 -95.3091 123° Southeast 214 246 1,700 1,588 Climbing FlightAware ADS-B
Thu 08:18:56 AM 29.9320 -95.2960 122° Southeast 228 262 2,100 2,800 Climbing FlightAware ADS-B
Thu 08:19:13 AM 29.9225 -95.2785 122° Southeast 226 260 3,100 3,091 Climbing FlightAware ADS-B
Thu 08:19:29 AM 29.9133 -95.2619 123° Southeast 239 275 3,800 2,063 Climbing FlightAware ADS-B
Thu 08:19:45 AM 29.9031 -95.2440 123° Southeast 265 305 4,200 2,323 Climbing FlightAware ADS-B
Thu 08:20:00 AM 29.8923 -95.2253 124° Southeast 271 312 5,000 3,200 Climbing FlightAware ADS-B
Thu 08:20:15 AM 29.8817 -95.2071 124° Southeast 276 318 5,800 3,097 Climbing FlightAware ADS-B
Thu 08:20:31 AM 29.8703 -95.1880 125° Southeast 280 322 6,600 3,097 Climbing FlightAware ADS-B
Thu 08:20:46 AM 29.8588 -95.1693 125° Southeast 285 328 7,400 3,400 Climbing FlightAware ADS-B
Thu 08:21:01 AM 29.8472 -95.1507 126° Southeast 286 329 8,300 3,400 Climbing FlightAware ADS-B
Thu 08:21:16 AM 29.8353 -95.1316 126° Southeast 289 333 9,100 3,111 Climbing FlightAware ADS-B
Thu 08:21:28 AM 29.8262 -95.1169 126° Southeast 291 335 9,700 3,000 Climbing FlightAware ADS-B
Thu 08:21:40 AM 29.8174 -95.1013 120° Southeast 294 338 10,300 2,471 Climbing FlightAware ADS-B
Thu 08:21:45 AM 29.8145 -95.0944 116° Southeast 298 343 10,400 1,333 Climbing FlightAware ADS-B
Thu 08:21:58 AM 29.8090 -95.0743 106° East 316 364 10,700 2,308 Climbing FlightAware ADS-B
Thu 08:23:29 AM 29.7898 -94.9078 97° East 356 410 14,400 2,566 Climbing FlightAware ADS-B
Thu 08:24:30 AM 29.7761 -94.7917 98° East 362 417 17,200 2,537 Climbing FlightAware ADS-B
Thu 08:25:32 AM 29.7616 -94.6724 98° East 376 433 19,600 2,235 Climbing FlightAware ADS-B
Thu 08:27:03 AM 29.7389 -94.4881 98° East 396 456 22,900 1,736 Climbing FlightAware ADS-B
Thu 08:27:33 AM 29.7309 -94.4243 98° East 401 461 23,100 968 Climbing FlightAware ADS-B
Thu 08:28:05 AM 29.7225 -94.3562 98° East 412 474 23,900 1,429 Climbing FlightAware ADS-B
Thu 08:28:36 AM 29.7146 -94.2882 98° East 423 487 24,600 1,548 Climbing FlightAware ADS-B
Thu 08:29:07 AM 29.7072 -94.2198 97° East 428 493 25,500 1,891 Climbing FlightAware ADS-B
Thu 08:30:08 AM 29.6916 -94.0801 97° East 433 498 27,500 1,705 Climbing FlightAware ADS-B
Thu 08:30:42 AM 29.6865 -94.0019 92° East 441 507 28,200 1,265 Climbing FlightAware ADS-B
Thu 08:32:54 AM 29.6836 -93.6816 91° East 469 540 31,000 1,228 Climbing FlightAware ADS-B
Thu 08:33:33 AM 29.6825 -93.6075 91° East 466 536 31,700 1,248 Climbing Houston Center
Thu 08:34:35 AM 29.6797 -93.4578 91° East 471 542 33,100 1,268 Climbing Houston Center
Thu 08:35:36 AM 29.6778 -93.3092 91° East 469 540 34,300 1,366 Climbing Houston Center
Thu 08:36:38 AM 29.6756 -93.1308 91° East 468 539 35,900 1,258 Climbing Houston Center
Thu 08:37:40 AM 29.6736 -92.9836 91° East 466 536 36,900 484 Climbing Houston Center
Thu 08:38:42 AM 29.6725 -92.8417 90° East 453 521 36,900 14 Level Houston Center
Thu 08:44:44 AM 29.5783 -91.9634 90° East 456 525 37,000 14 Climbing FlightAware ADS-B
Thu 08:45:39 AM 29.5514 -91.8349 104° East 456 525 37,000  Level FlightAware ADS-B
Thu 08:46:14 AM 29.5342 -91.7530 104° East 456 525 37,000  Level FlightAware ADS-B
Thu 08:46:56 AM 29.5203 -91.6844 104° East 452 520 37,000  Level Houston Center
Thu 08:52:33 AM 29.3430 -90.8610 104° East 461 531 37,000  Level FlightAware ADS-B
Thu 08:53:16 AM 29.3230 -90.7680 104° East 459 528 37,000  Level FlightAware ADS-B
Thu 08:54:14 AM 29.2910 -90.6260 104° East 454 522 37,000  Level FlightAware ADS-B
Thu 08:54:54 AM 29.2740 -90.5460 104° East 454 522 37,000  Level FlightAware ADS-B
Thu 08:56:37 AM 29.2290 -90.3420 104° East 454 522 37,000  Level FlightAware ADS-B
Thu 08:57:16 AM 29.2120 -90.2650 104° East 454 522 37,000  Level FlightAware ADS-B
Thu 08:57:55 AM 29.1800 -90.1250 105° East 446 513 37,000  Level FlightAware ADS-B
Thu 08:58:41 AM 29.1610 -90.0350 104° East 446 513 37,000  Level FlightAware ADS-B
Thu 08:59:16 AM 29.1460 -89.9670 104° East 446 513 37,000  Level FlightAware ADS-B
Thu 09:00:02 AM 29.1260 -89.8780 104° East 446 513 37,000  Level FlightAware ADS-B
Thu 09:00:48 AM 29.1070 -89.7880 104° East 446 513 37,000  Level FlightAware ADS-B
Thu 09:01:44 AM 29.0720 -89.5960 102° East 448 516 37,000  Level FlightAware ADS-B
Thu 09:02:21 AM 29.0570 -89.5240 103° East 448 516 37,000  Level FlightAware ADS-B
Thu 09:03:08 AM 29.0380 -89.4310 103° East 448 516 37,000  Level FlightAware ADS-B
Thu 09:03:44 AM 29.0140 -89.3180 104° East 454 522 37,000  Level FlightAware ADS-B
Thu 09:04:30 AM 28.9900 -89.2050 104° East 455 524 37,000  Level FlightAware ADS-B
Thu 09:05:26 AM 28.9630 -89.0780 104° East 455 524 37,000  Level FlightAware ADS-B
Thu 09:06:11 AM 28.9430 -88.9810 103° East 455 524 37,000  Level FlightAware ADS-B
Thu 09:07:35 AM 28.9040 -88.7950 103° East 452 520 37,000  Level FlightAware ADS-B
Thu 09:08:09 AM 28.8910 -88.7270 102° East 452 520 37,000  Level FlightAware ADS-B
Thu 09:08:58 AM 28.8710 -88.6310 103° East 452 520 37,000  Level FlightAware ADS-B
Thu 09:09:37 AM 28.8550 -88.5530 103° East 452 520 37,000  Level FlightAware ADS-B
Thu 09:10:58 AM 28.8230 -88.3930 103° East 452 520 37,000  Level FlightAware ADS-B
Thu 09:11:49 AM 28.8030 -88.2920 103° East 452 520 37,000  Level FlightAware ADS-B
Thu 09:12:26 AM 28.7880 -88.2190 103° East 452 520 37,000  Level FlightAware ADS-B
Thu 09:13:03 AM 28.7730 -88.1460 103° East 452 520 37,000  Level FlightAware ADS-B
Thu 09:13:54 AM 28.7530 -88.0450 103° East 452 520 37,000  Level FlightAware ADS-B
Thu 09:14:30 AM 28.7380 -87.9740 104° East 452 520 37,000  Level FlightAware ADS-B
Thu 09:15:48 AM 28.7070 -87.8200 103° East 452 520 37,000  Level FlightAware ADS-B
Thu 09:16:22 AM 28.6930 -87.7530 103° East 452 520 37,000  Level FlightAware ADS-B
Thu 09:16:50 AM 28.5553 -87.5317 103° East 457 526 37,000  Level Houston Center
Thu 09:17:52 AM 28.5164 -87.3967 108° East 454 522 37,000 -48 Level Houston Center
Thu 09:18:54 AM 28.4692 -87.2322 108° East 457 526 36,900  Descending Houston Center
Thu 09:19:56 AM 28.4297 -87.0975 108° East 453 521 37,000 78 Climbing Houston Center
Thu 09:20:11 AM 28.4242 -87.0747 105° East 455 524 37,000  Level Jacksonville Center
Thu 09:21:11 AM 28.3844 -86.9411 109° East 448 516 37,000 -350 Level Jacksonville Center
Thu 09:22:11 AM 28.3469 -86.8097 108° East 448 516 36,300 -850 Descending Jacksonville Center
Thu 09:23:11 AM 28.3069 -86.6786 109° East 441 507 35,300 -950 Descending Jacksonville Center
Thu 09:24:11 AM 28.2711 -86.5500 108° East 436 502 34,400 -950 Descending Jacksonville Center
Thu 09:25:11 AM 28.2331 -86.4192 108° East 431 496 33,400 -750 Descending Jacksonville Center
Thu 09:26:11 AM 28.1928 -86.2883 109° East 431 496 32,900 -200 Descending Jacksonville Center
Thu 09:27:11 AM 28.1544 -86.1575 108° East 440 506 33,000 50 Climbing Jacksonville Center
Thu 09:28:11 AM 28.1158 -86.0292 109° East 434 499 33,000  Level Jacksonville Center
Thu 09:29:11 AM 28.0772 -85.8964 108° East 434 499 33,000  Level Jacksonville Center
Thu 09:35:01 AM 27.8780 -85.1290 108° East 422 486 33,000  Level FlightAware ADS-B
Thu 09:36:02 AM 27.8760 -85.0150 91° East 422 486 33,000  Level FlightAware ADS-B
Thu 09:36:45 AM 27.8860 -84.8890 85° East 421 484 33,000 -380 Level FlightAware ADS-B
Thu 09:37:21 AM 27.8870 -84.8100 89° East 434 499 32,500 -477 Descending FlightAware ADS-B
Thu 09:38:13 AM 27.8900 -84.7110 88° East 437 503 32,300 -140 Descending FlightAware ADS-B
Thu 09:38:47 AM 27.8920 -84.6450 88° East 437 503 32,300 -1,425 Level FlightAware ADS-B
Thu 09:39:33 AM 27.8940 -84.5040 89° East 450 518 30,400 -1,211 Descending FlightAware ADS-B
Thu 09:40:41 AM 27.8970 -84.3680 89° East 451 519 30,000 -198 Descending FlightAware ADS-B
Thu 09:41:34 AM 27.9010 -84.2620 88° East 451 519 30,000  Level FlightAware ADS-B
Thu 09:42:20 AM 27.9040 -84.1700 88° East 451 519 30,000 -3,400 Level FlightAware ADS-B
Thu 09:43:04 AM 27.9030 -84.0200 90° East 419 482 24,900 -4,636 Descending FlightAware ADS-B
Thu 09:43:48 AM 27.9040 -83.9220 89° East 409 471 23,200 -2,203 Descending FlightAware ADS-B
Thu 09:44:23 AM 27.9050 -83.8490 89° East 401 461 22,000 -1,143 Descending FlightAware ADS-B
Thu 09:44:51 AM 27.9070 -83.7990 87° East 401 461 22,000  Level FlightAware ADS-B
Thu 09:46:00 AM 27.9110 -83.6760 88° East 401 461 22,000  Level FlightAware ADS-B
Thu 09:46:49 AM 27.9130 -83.5880 89° East 401 461 22,000  Level FlightAware ADS-B
Thu 09:47:29 AM 27.9160 -83.5170 87° East 401 461 22,000  Level FlightAware ADS-B
Thu 09:48:10 AM 27.9180 -83.4440 88° East 401 461 22,000 -5,564 Level FlightAware ADS-B
Thu 09:49:19 AM 27.9130 -83.2790 92° East 348 400 11,800 -5,774 Descending FlightAware ADS-B
Thu 09:49:56 AM 27.9140 -83.2220 89° East 348 400 11,800  Level FlightAware ADS-B
Thu 09:50:47 AM 27.9150 -83.1430 89° East 348 400 11,800 -2,000 Level FlightAware ADS-B
Thu 09:50:53 AM 27.9340 -83.1190 48° Northeast 302 348 9,900 -3,353 Descending FlightAware ADS-B
Thu 09:51:21 AM 27.9490 -83.0860 63° Northeast 302 348 9,900 -581 Level FlightAware ADS-B
Thu 09:52:26 AM 27.9860 -83.0040 63° Northeast 281 323 9,000 -1,630 Descending FlightAware ADS-B
Thu 09:52:53 AM 28.0060 -82.9580 64° Northeast 279 321 7,400 -2,769 Descending FlightAware ADS-B
Thu 09:53:05 AM 28.0130 -82.9420 64° Northeast 277 319 7,200 -1,286 Descending FlightAware ADS-B
Thu 09:53:35 AM 28.0300 -82.9040 63° Northeast 273 314 6,500 -1,286 Descending FlightAware ADS-B
Thu 09:53:47 AM 28.0370 -82.8880 64° Northeast 273 314 6,300 -923 Descending FlightAware ADS-B
Thu 09:54:14 AM 28.0520 -82.8540 63° Northeast 271 312 5,900 -545 Descending FlightAware ADS-B
Thu 09:54:31 AM 28.0560 -82.8300 79° East 270 311 5,900  Level FlightAware ADS-B
Thu 09:54:59 AM 28.0510 -82.7920 98° East 268 308 5,900  Level FlightAware ADS-B
Thu 09:55:24 AM 28.0420 -82.7580 107° East 269 310 5,900  Level FlightAware ADS-B
Thu 09:55:55 AM 28.0310 -82.7160 107° East 269 310 5,900 -436 Level FlightAware ADS-B
Thu 09:56:19 AM 28.0230 -82.6840 106° East 270 311 5,500 -1,111 Descending FlightAware ADS-B
Thu 09:56:49 AM 28.0090 -82.6460 113° Southeast 269 310 4,900 -913 Descending FlightAware ADS-B
Thu 09:57:05 AM 27.9950 -82.6300 135° Southeast 258 297 4,800  Descending FlightAware ADS-B
Thu 09:57:17 AM 27.9820 -82.6220 151° Southeast 253 291 4,900 -214 Climbing FlightAware ADS-B
Thu 09:57:33 AM 27.9650 -82.6170 165° South 247 284 4,700 -1,138 Descending FlightAware ADS-B
Thu 09:58:15 AM 27.9150 -82.6190 182° South 249 287 3,800 -1,219 Descending FlightAware ADS-B
Thu 09:58:37 AM 27.8920 -82.6200 182° South 248 285 3,400 -1,143 Descending FlightAware ADS-B
Thu 09:58:57 AM 27.8690 -82.6210 182° South 247 284 3,000 -625 Descending FlightAware ADS-B
Thu 09:59:25 AM 27.8370 -82.6220 182° South 247 284 2,900 -429 Descending FlightAware ADS-B
Thu 09:59:53 AM 27.8040 -82.6190 175° South 239 275 2,600 -353 Descending FlightAware ADS-B
Thu 10:00:33 AM 27.7600 -82.6110 171° South 236 272 2,500 -85 Descending FlightAware ADS-B
Thu 10:01:04 AM 27.7380 -82.5840 133° Southeast 239 275 2,500  Level FlightAware ADS-B
Thu 10:01:28 AM 27.7430 -82.5550 79° East 242 278 2,500  Level FlightAware ADS-B
Thu 10:01:54 AM 27.7650 -82.5380 34° Northeast 213 245 2,500 -154 Level FlightAware ADS-B
Thu 10:02:07 AM 27.7770 -82.5350 12° North 203 234 2,400  Descending FlightAware ADS-B
Thu 10:02:39 AM 27.8070 -82.5340 North 197 227 2,500 103 Climbing FlightAware ADS-B
Thu 10:03:05 AM 27.8310 -82.5330 North 195 224 2,500 -218 Level FlightAware ADS-B
Thu 10:03:34 AM 27.8570 -82.5330 360° North 196 226 2,300 -522 Descending FlightAware ADS-B
Thu 10:03:51 AM 27.8710 -82.5320 North 194 223 2,100 -1,067 Descending FlightAware ADS-B
Thu 10:04:19 AM 27.8950 -82.5320 360° North 178 205 1,500 -1,200 Descending FlightAware ADS-B
Thu 10:04:41 AM 27.9130 -82.5310 North 163 188 1,100 -1,000 Descending FlightAware ADS-B
Thu 10:05:13 AM 27.9340 -82.5300 North 152 175 600 -894 Descending FlightAware ADS-B
Thu 10:05:28 AM 27.9430 -82.5300 360° North 152 175 400 -300 Descending FlightAware ADS-B
Thu 10:05:53 AM 27.9580 -82.5290 North 152 175 400  Level FlightAware ADS-B

Login

Don't have an account? Register now (free) for customized features, flight alerts, and more!